sensor_id;sensor_type;location;lat;lon;timestamp;P1;durP1;ratioP1;P2;durP2;ratioP2
48042;SDS011;33988;47.992;8.820;2023-02-28T00:01:33;3.72;;;2.45;;
48042;SDS011;33988;47.992;8.820;2023-02-28T00:04:00;3.97;;;2.60;;
48042;SDS011;33988;47.992;8.820;2023-02-28T00:06:30;3.20;;;2.50;;
48042;SDS011;33988;47.992;8.820;2023-02-28T00:08:59;3.85;;;2.63;;
48042;SDS011;33988;47.992;8.820;2023-02-28T00:11:28;4.15;;;2.38;;
48042;SDS011;33988;47.992;8.820;2023-02-28T00:13:57;3.85;;;2.85;;
48042;SDS011;33988;47.992;8.820;2023-02-28T00:16:24;4.40;;;2.72;;
48042;SDS011;33988;47.992;8.820;2023-02-28T00:18:54;3.35;;;2.70;;
48042;SDS011;33988;47.992;8.820;2023-02-28T00:21:20;3.70;;;2.75;;
48042;SDS011;33988;47.992;8.820;2023-02-28T00:23:47;3.25;;;2.63;;
48042;SDS011;33988;47.992;8.820;2023-02-28T00:26:14;4.80;;;2.80;;
48042;SDS011;33988;47.992;8.820;2023-02-28T00:28:47;4.15;;;2.65;;
48042;SDS011;33988;47.992;8.820;2023-02-28T00:31:14;4.03;;;2.60;;
48042;SDS011;33988;47.992;8.820;2023-02-28T00:33:41;2.75;;;2.30;;
48042;SDS011;33988;47.992;8.820;2023-02-28T00:36:11;4.00;;;2.78;;
48042;SDS011;33988;47.992;8.820;2023-02-28T00:38:38;3.13;;;2.38;;
48042;SDS011;33988;47.992;8.820;2023-02-28T00:41:09;4.32;;;2.65;;
48042;SDS011;33988;47.992;8.820;2023-02-28T00:43:36;4.18;;;2.63;;
48042;SDS011;33988;47.992;8.820;2023-02-28T00:46:05;3.40;;;2.80;;
48042;SDS011;33988;47.992;8.820;2023-02-28T00:48:33;2.88;;;2.50;;
48042;SDS011;33988;47.992;8.820;2023-02-28T00:51:01;3.55;;;2.65;;
48042;SDS011;33988;47.992;8.820;2023-02-28T00:53:35;4.03;;;2.72;;
48042;SDS011;33988;47.992;8.820;2023-02-28T00:56:10;3.42;;;2.45;;
48042;SDS011;33988;47.992;8.820;2023-02-28T00:58:37;3.17;;;2.67;;
48042;SDS011;33988;47.992;8.820;2023-02-28T01:01:04;3.50;;;2.80;;
48042;SDS011;33988;47.992;8.820;2023-02-28T01:03:34;3.30;;;2.33;;
48042;SDS011;33988;47.992;8.820;2023-02-28T01:06:03;4.55;;;2.60;;
48042;SDS011;33988;47.992;8.820;2023-02-28T01:08:36;3.45;;;2.90;;
48042;SDS011;33988;47.992;8.820;2023-02-28T01:11:10;3.10;;;2.53;;
48042;SDS011;33988;47.992;8.820;2023-02-28T01:13:41;2.95;;;2.58;;
48042;SDS011;33988;47.992;8.820;2023-02-28T01:18:42;2.97;;;2.30;;
48042;SDS011;33988;47.992;8.820;2023-02-28T01:21:10;3.72;;;2.65;;
48042;SDS011;33988;47.992;8.820;2023-02-28T01:23:40;3.13;;;2.42;;
48042;SDS011;33988;47.992;8.820;2023-02-28T01:26:15;3.58;;;2.38;;
48042;SDS011;33988;47.992;8.820;2023-02-28T01:28:47;3.33;;;2.42;;
48042;SDS011;33988;47.992;8.820;2023-02-28T01:31:16;3.60;;;2.55;;
48042;SDS011;33988;47.992;8.820;2023-02-28T01:33:47;3.60;;;2.83;;
48042;SDS011;33988;47.992;8.820;2023-02-28T01:36:18;3.97;;;2.90;;
48042;SDS011;33988;47.992;8.820;2023-02-28T01:38:48;3.30;;;2.47;;
48042;SDS011;33988;47.992;8.820;2023-02-28T01:41:18;3.80;;;2.85;;
48042;SDS011;33988;47.992;8.820;2023-02-28T01:46:15;2.63;;;2.35;;
48042;SDS011;33988;47.992;8.820;2023-02-28T01:48:44;3.85;;;2.70;;
48042;SDS011;33988;47.992;8.820;2023-02-28T01:54:22;3.20;;;2.53;;
48042;SDS011;33988;47.992;8.820;2023-02-28T01:57:01;2.42;;;2.22;;
48042;SDS011;33988;47.992;8.820;2023-02-28T01:59:42;2.95;;;2.50;;
48042;SDS011;33988;47.992;8.820;2023-02-28T02:02:21;3.05;;;2.50;;
48042;SDS011;33988;47.992;8.820;2023-02-28T02:04:53;3.38;;;2.70;;
48042;SDS011;33988;47.992;8.820;2023-02-28T02:07:29;3.15;;;2.72;;
48042;SDS011;33988;47.992;8.820;2023-02-28T02:10:19;3.75;;;2.58;;
48042;SDS011;33988;47.992;8.820;2023-02-28T02:18:57;3.40;;;2.65;;
48042;SDS011;33988;47.992;8.820;2023-02-28T02:33:23;2.97;;;2.60;;
48042;SDS011;33988;47.992;8.820;2023-02-28T02:36:07;2.95;;;2.40;;
48042;SDS011;33988;47.992;8.820;2023-02-28T02:43:52;2.87;;;2.37;;
48042;SDS011;33988;47.992;8.820;2023-02-28T02:46:26;3.63;;;2.83;;
48042;SDS011;33988;47.992;8.820;2023-02-28T02:49:03;3.15;;;2.60;;
48042;SDS011;33988;47.992;8.820;2023-02-28T02:51:36;3.72;;;2.97;;
48042;SDS011;33988;47.992;8.820;2023-02-28T02:54:11;3.58;;;2.95;;
48042;SDS011;33988;47.992;8.820;2023-02-28T02:57:05;4.30;;;2.58;;
48042;SDS011;33988;47.992;8.820;2023-02-28T02:59:40;3.95;;;2.88;;
48042;SDS011;33988;47.992;8.820;2023-02-28T03:02:08;3.05;;;2.55;;
48042;SDS011;33988;47.992;8.820;2023-02-28T03:04:46;4.38;;;2.47;;
48042;SDS011;33988;47.992;8.820;2023-02-28T03:07:21;2.75;;;2.42;;
48042;SDS011;33988;47.992;8.820;2023-02-28T03:09:52;4.05;;;2.72;;
48042;SDS011;33988;47.992;8.820;2023-02-28T03:25:56;3.15;;;2.40;;
48042;SDS011;33988;47.992;8.820;2023-02-28T03:28:35;5.47;;;2.97;;
48042;SDS011;33988;47.992;8.820;2023-02-28T03:31:16;4.75;;;3.03;;
48042;SDS011;33988;47.992;8.820;2023-02-28T03:34:04;3.33;;;2.63;;
48042;SDS011;33988;47.992;8.820;2023-02-28T03:36:42;6.47;;;2.70;;
48042;SDS011;33988;47.992;8.820;2023-02-28T03:39:16;3.83;;;2.92;;
48042;SDS011;33988;47.992;8.820;2023-02-28T03:41:53;4.63;;;3.03;;
48042;SDS011;33988;47.992;8.820;2023-02-28T03:44:32;5.05;;;2.92;;
48042;SDS011;33988;47.992;8.820;2023-02-28T03:47:05;4.75;;;2.67;;
48042;SDS011;33988;47.992;8.820;2023-02-28T03:50:05;3.17;;;2.67;;
48042;SDS011;33988;47.992;8.820;2023-02-28T03:52:41;4.10;;;3.30;;
48042;SDS011;33988;47.992;8.820;2023-02-28T03:55:16;3.50;;;2.80;;
48042;SDS011;33988;47.992;8.820;2023-02-28T03:57:53;4.45;;;3.38;;
48042;SDS011;33988;47.992;8.820;2023-02-28T04:00:31;4.57;;;3.15;;
48042;SDS011;33988;47.992;8.820;2023-02-28T04:03:04;4.95;;;3.13;;
48042;SDS011;33988;47.992;8.820;2023-02-28T04:05:31;5.15;;;3.35;;
48042;SDS011;33988;47.992;8.820;2023-02-28T04:08:05;4.25;;;2.67;;
48042;SDS011;33988;47.992;8.820;2023-02-28T04:10:34;3.70;;;3.03;;
48042;SDS011;33988;47.992;8.820;2023-02-28T04:13:01;4.03;;;3.08;;
48042;SDS011;33988;47.992;8.820;2023-02-28T04:15:28;3.47;;;3.08;;
48042;SDS011;33988;47.992;8.820;2023-02-28T04:17:56;4.72;;;3.38;;
48042;SDS011;33988;47.992;8.820;2023-02-28T04:20:23;3.58;;;3.05;;
48042;SDS011;33988;47.992;8.820;2023-02-28T04:22:50;4.78;;;3.65;;
48042;SDS011;33988;47.992;8.820;2023-02-28T04:25:17;5.65;;;3.13;;
48042;SDS011;33988;47.992;8.820;2023-02-28T04:27:44;4.38;;;3.30;;
48042;SDS011;33988;47.992;8.820;2023-02-28T04:30:11;4.43;;;3.00;;
48042;SDS011;33988;47.992;8.820;2023-02-28T04:32:41;5.20;;;3.60;;
48042;SDS011;33988;47.992;8.820;2023-02-28T04:35:08;3.85;;;3.17;;
48042;SDS011;33988;47.992;8.820;2023-02-28T04:37:37;5.90;;;3.72;;
48042;SDS011;33988;47.992;8.820;2023-02-28T04:40:07;5.93;;;3.50;;
48042;SDS011;33988;47.992;8.820;2023-02-28T04:42:37;4.20;;;3.42;;
48042;SDS011;33988;47.992;8.820;2023-02-28T04:45:06;5.13;;;3.47;;
48042;SDS011;33988;47.992;8.820;2023-02-28T04:47:36;5.22;;;3.38;;
48042;SDS011;33988;47.992;8.820;2023-02-28T04:50:05;4.63;;;3.33;;
48042;SDS011;33988;47.992;8.820;2023-02-28T04:52:33;5.40;;;3.75;;
48042;SDS011;33988;47.992;8.820;2023-02-28T04:55:00;6.10;;;3.42;;
48042;SDS011;33988;47.992;8.820;2023-02-28T04:57:27;7.70;;;3.42;;
48042;SDS011;33988;47.992;8.820;2023-02-28T04:59:56;4.25;;;3.40;;
48042;SDS011;33988;47.992;8.820;2023-02-28T05:02:23;4.97;;;3.53;;
48042;SDS011;33988;47.992;8.820;2023-02-28T05:04:52;3.65;;;3.30;;
48042;SDS011;33988;47.992;8.820;2023-02-28T05:07:19;4.60;;;3.65;;
48042;SDS011;33988;47.992;8.820;2023-02-28T05:09:46;5.03;;;3.58;;
48042;SDS011;33988;47.992;8.820;2023-02-28T05:12:15;6.75;;;3.85;;
48042;SDS011;33988;47.992;8.820;2023-02-28T05:14:42;5.70;;;3.63;;
48042;SDS011;33988;47.992;8.820;2023-02-28T05:17:14;4.57;;;3.45;;
48042;SDS011;33988;47.992;8.820;2023-02-28T05:19:45;4.32;;;3.30;;
48042;SDS011;33988;47.992;8.820;2023-02-28T05:22:14;5.72;;;3.58;;
48042;SDS011;33988;47.992;8.820;2023-02-28T05:24:42;5.30;;;3.72;;
48042;SDS011;33988;47.992;8.820;2023-02-28T05:27:10;5.18;;;3.60;;
48042;SDS011;33988;47.992;8.820;2023-02-28T05:29:37;5.18;;;3.50;;
48042;SDS011;33988;47.992;8.820;2023-02-28T05:32:09;3.70;;;3.05;;
48042;SDS011;33988;47.992;8.820;2023-02-28T05:34:37;4.85;;;3.88;;
48042;SDS011;33988;47.992;8.820;2023-02-28T05:37:05;4.88;;;3.72;;
48042;SDS011;33988;47.992;8.820;2023-02-28T05:39:38;5.53;;;3.63;;
48042;SDS011;33988;47.992;8.820;2023-02-28T05:42:05;5.45;;;3.63;;
48042;SDS011;33988;47.992;8.820;2023-02-28T05:44:32;4.38;;;3.60;;
48042;SDS011;33988;47.992;8.820;2023-02-28T05:46:59;4.35;;;3.17;;
48042;SDS011;33988;47.992;8.820;2023-02-28T05:49:26;5.55;;;3.70;;
48042;SDS011;33988;47.992;8.820;2023-02-28T05:51:56;3.97;;;3.42;;
48042;SDS011;33988;47.992;8.820;2023-02-28T05:54:23;5.68;;;3.63;;
48042;SDS011;33988;47.992;8.820;2023-02-28T05:56:50;5.13;;;4.05;;
48042;SDS011;33988;47.992;8.820;2023-02-28T05:59:17;6.28;;;3.40;;
48042;SDS011;33988;47.992;8.820;2023-02-28T06:01:46;5.88;;;4.10;;
48042;SDS011;33988;47.992;8.820;2023-02-28T06:04:17;7.20;;;4.07;;
48042;SDS011;33988;47.992;8.820;2023-02-28T06:06:57;5.80;;;3.78;;
48042;SDS011;33988;47.992;8.820;2023-02-28T06:09:30;5.70;;;3.35;;
48042;SDS011;33988;47.992;8.820;2023-02-28T06:11:58;5.35;;;3.97;;
48042;SDS011;33988;47.992;8.820;2023-02-28T06:14:26;4.78;;;3.75;;
48042;SDS011;33988;47.992;8.820;2023-02-28T06:16:57;4.28;;;3.17;;
48042;SDS011;33988;47.992;8.820;2023-02-28T06:19:25;6.95;;;3.50;;
48042;SDS011;33988;47.992;8.820;2023-02-28T06:21:53;5.07;;;3.85;;
48042;SDS011;33988;47.992;8.820;2023-02-28T06:24:24;6.07;;;3.67;;
48042;SDS011;33988;47.992;8.820;2023-02-28T06:26:54;5.95;;;4.03;;
48042;SDS011;33988;47.992;8.820;2023-02-28T06:29:21;4.97;;;3.47;;
48042;SDS011;33988;47.992;8.820;2023-02-28T06:31:48;3.78;;;3.38;;
48042;SDS011;33988;47.992;8.820;2023-02-28T06:34:17;4.82;;;3.65;;
48042;SDS011;33988;47.992;8.820;2023-02-28T06:36:44;5.60;;;3.70;;
48042;SDS011;33988;47.992;8.820;2023-02-28T06:39:13;5.13;;;3.70;;
48042;SDS011;33988;47.992;8.820;2023-02-28T06:41:43;5.70;;;3.88;;
48042;SDS011;33988;47.992;8.820;2023-02-28T06:44:20;4.38;;;3.45;;
48042;SDS011;33988;47.992;8.820;2023-02-28T06:46:48;4.45;;;3.35;;
48042;SDS011;33988;47.992;8.820;2023-02-28T06:49:15;5.68;;;3.85;;
48042;SDS011;33988;47.992;8.820;2023-02-28T06:51:43;5.70;;;4.38;;
48042;SDS011;33988;47.992;8.820;2023-02-28T06:54:15;4.88;;;3.65;;
48042;SDS011;33988;47.992;8.820;2023-02-28T06:56:44;6.38;;;3.70;;
48042;SDS011;33988;47.992;8.820;2023-02-28T06:59:13;6.75;;;4.20;;
48042;SDS011;33988;47.992;8.820;2023-02-28T07:01:42;4.03;;;3.30;;
48042;SDS011;33988;47.992;8.820;2023-02-28T07:04:12;4.85;;;3.40;;
48042;SDS011;33988;47.992;8.820;2023-02-28T07:06:39;6.28;;;3.78;;
48042;SDS011;33988;47.992;8.820;2023-02-28T07:09:08;5.20;;;3.60;;
48042;SDS011;33988;47.992;8.820;2023-02-28T07:11:38;5.32;;;3.75;;
48042;SDS011;33988;47.992;8.820;2023-02-28T07:14:09;5.17;;;4.03;;
48042;SDS011;33988;47.992;8.820;2023-02-28T07:16:36;5.53;;;3.95;;
48042;SDS011;33988;47.992;8.820;2023-02-28T07:19:05;6.15;;;3.97;;
48042;SDS011;33988;47.992;8.820;2023-02-28T07:21:34;6.22;;;3.70;;
48042;SDS011;33988;47.992;8.820;2023-02-28T07:24:03;4.93;;;3.83;;
48042;SDS011;33988;47.992;8.820;2023-02-28T07:26:31;5.22;;;3.83;;
48042;SDS011;33988;47.992;8.820;2023-02-28T07:29:00;7.72;;;3.78;;
48042;SDS011;33988;47.992;8.820;2023-02-28T07:31:29;4.75;;;3.63;;
48042;SDS011;33988;47.992;8.820;2023-02-28T07:33:59;7.20;;;3.70;;
48042;SDS011;33988;47.992;8.820;2023-02-28T07:36:26;5.55;;;3.92;;
48042;SDS011;33988;47.992;8.820;2023-02-28T07:38:53;5.30;;;3.97;;
48042;SDS011;33988;47.992;8.820;2023-02-28T07:41:20;5.00;;;3.63;;
48042;SDS011;33988;47.992;8.820;2023-02-28T07:43:50;4.97;;;3.97;;
48042;SDS011;33988;47.992;8.820;2023-02-28T07:46:20;6.55;;;3.97;;
48042;SDS011;33988;47.992;8.820;2023-02-28T07:48:48;4.55;;;3.47;;
48042;SDS011;33988;47.992;8.820;2023-02-28T07:51:15;7.93;;;4.18;;
48042;SDS011;33988;47.992;8.820;2023-02-28T07:53:42;4.78;;;3.83;;
48042;SDS011;33988;47.992;8.820;2023-02-28T07:56:09;5.85;;;4.13;;
48042;SDS011;33988;47.992;8.820;2023-02-28T07:58:38;5.80;;;3.75;;
48042;SDS011;33988;47.992;8.820;2023-02-28T08:01:06;6.30;;;4.25;;
48042;SDS011;33988;47.992;8.820;2023-02-28T08:03:39;5.82;;;4.45;;
48042;SDS011;33988;47.992;8.820;2023-02-28T08:06:07;5.15;;;4.07;;
48042;SDS011;33988;47.992;8.820;2023-02-28T08:08:47;5.43;;;3.72;;
48042;SDS011;33988;47.992;8.820;2023-02-28T08:11:15;6.43;;;4.25;;
48042;SDS011;33988;47.992;8.820;2023-02-28T08:13:43;5.30;;;3.83;;
48042;SDS011;33988;47.992;8.820;2023-02-28T08:16:14;5.30;;;3.88;;
48042;SDS011;33988;47.992;8.820;2023-02-28T08:18:49;6.72;;;4.15;;
48042;SDS011;33988;47.992;8.820;2023-02-28T08:21:21;5.38;;;4.10;;
48042;SDS011;33988;47.992;8.820;2023-02-28T08:23:48;5.53;;;4.05;;
48042;SDS011;33988;47.992;8.820;2023-02-28T08:26:17;6.00;;;3.85;;
48042;SDS011;33988;47.992;8.820;2023-02-28T08:28:44;6.65;;;4.25;;
48042;SDS011;33988;47.992;8.820;2023-02-28T08:31:12;6.13;;;4.22;;
48042;SDS011;33988;47.992;8.820;2023-02-28T08:33:43;5.95;;;4.18;;
48042;SDS011;33988;47.992;8.820;2023-02-28T08:36:11;7.50;;;4.45;;
48042;SDS011;33988;47.992;8.820;2023-02-28T08:38:41;5.13;;;4.10;;
48042;SDS011;33988;47.992;8.820;2023-02-28T08:41:11;6.18;;;4.18;;
48042;SDS011;33988;47.992;8.820;2023-02-28T08:43:39;6.88;;;3.95;;
48042;SDS011;33988;47.992;8.820;2023-02-28T08:46:07;5.13;;;3.97;;
48042;SDS011;33988;47.992;8.820;2023-02-28T08:48:38;6.72;;;4.78;;
48042;SDS011;33988;47.992;8.820;2023-02-28T08:51:09;7.78;;;4.53;;
48042;SDS011;33988;47.992;8.820;2023-02-28T08:53:39;7.10;;;4.60;;
48042;SDS011;33988;47.992;8.820;2023-02-28T08:56:07;9.95;;;5.57;;
48042;SDS011;33988;47.992;8.820;2023-02-28T08:58:37;7.15;;;4.63;;
48042;SDS011;33988;47.992;8.820;2023-02-28T09:01:07;12.82;;;6.25;;
48042;SDS011;33988;47.992;8.820;2023-02-28T09:03:43;11.93;;;5.70;;
48042;SDS011;33988;47.992;8.820;2023-02-28T09:06:13;8.93;;;5.60;;
48042;SDS011;33988;47.992;8.820;2023-02-28T09:08:41;8.27;;;5.22;;
48042;SDS011;33988;47.992;8.820;2023-02-28T09:11:09;9.05;;;5.40;;
48042;SDS011;33988;47.992;8.820;2023-02-28T09:13:37;6.95;;;4.80;;
48042;SDS011;33988;47.992;8.820;2023-02-28T09:16:05;6.63;;;4.68;;
48042;SDS011;33988;47.992;8.820;2023-02-28T09:18:37;6.40;;;4.75;;
48042;SDS011;33988;47.992;8.820;2023-02-28T09:21:05;6.72;;;4.72;;
48042;SDS011;33988;47.992;8.820;2023-02-28T09:23:37;6.25;;;4.20;;
48042;SDS011;33988;47.992;8.820;2023-02-28T09:26:04;6.28;;;4.68;;
48042;SDS011;33988;47.992;8.820;2023-02-28T09:28:36;7.22;;;4.97;;
48042;SDS011;33988;47.992;8.820;2023-02-28T09:31:06;7.35;;;5.00;;
48042;SDS011;33988;47.992;8.820;2023-02-28T09:33:39;5.97;;;4.63;;
48042;SDS011;33988;47.992;8.820;2023-02-28T09:36:06;6.80;;;4.85;;
48042;SDS011;33988;47.992;8.820;2023-02-28T09:38:35;6.72;;;4.78;;
48042;SDS011;33988;47.992;8.820;2023-02-28T09:41:03;6.18;;;4.72;;
48042;SDS011;33988;47.992;8.820;2023-02-28T09:43:43;6.50;;;4.88;;
48042;SDS011;33988;47.992;8.820;2023-02-28T09:46:18;6.57;;;4.95;;
48042;SDS011;33988;47.992;8.820;2023-02-28T09:49:05;8.00;;;4.82;;
48042;SDS011;33988;47.992;8.820;2023-02-28T09:51:53;8.50;;;5.65;;
48042;SDS011;33988;47.992;8.820;2023-02-28T09:54:30;8.05;;;5.57;;
48042;SDS011;33988;47.992;8.820;2023-02-28T09:57:00;8.85;;;5.93;;
48042;SDS011;33988;47.992;8.820;2023-02-28T09:59:44;10.10;;;5.80;;
48042;SDS011;33988;47.992;8.820;2023-02-28T10:08:34;7.03;;;4.97;;
48042;SDS011;33988;47.992;8.820;2023-02-28T10:11:23;5.93;;;4.55;;
48042;SDS011;33988;47.992;8.820;2023-02-28T10:16:45;7.18;;;4.70;;
48042;SDS011;33988;47.992;8.820;2023-02-28T10:24:43;7.60;;;4.93;;
48042;SDS011;33988;47.992;8.820;2023-02-28T10:27:20;9.95;;;5.32;;
48042;SDS011;33988;47.992;8.820;2023-02-28T10:30:01;7.88;;;5.53;;
48042;SDS011;33988;47.992;8.820;2023-02-28T10:32:35;8.35;;;5.32;;
48042;SDS011;33988;47.992;8.820;2023-02-28T10:37:39;7.90;;;5.60;;
48042;SDS011;33988;47.992;8.820;2023-02-28T10:43:01;8.18;;;5.55;;
48042;SDS011;33988;47.992;8.820;2023-02-28T10:45:29;7.57;;;5.30;;
48042;SDS011;33988;47.992;8.820;2023-02-28T10:50:54;8.70;;;5.28;;
48042;SDS011;33988;47.992;8.820;2023-02-28T10:53:33;8.40;;;5.32;;
48042;SDS011;33988;47.992;8.820;2023-02-28T10:56:24;8.23;;;5.28;;
48042;SDS011;33988;47.992;8.820;2023-02-28T10:58:55;6.72;;;5.07;;
48042;SDS011;33988;47.992;8.820;2023-02-28T11:01:48;9.40;;;5.45;;
48042;SDS011;33988;47.992;8.820;2023-02-28T11:07:00;7.63;;;5.53;;
48042;SDS011;33988;47.992;8.820;2023-02-28T11:09:51;7.72;;;5.72;;
48042;SDS011;33988;47.992;8.820;2023-02-28T11:14:53;11.85;;;6.75;;
48042;SDS011;33988;47.992;8.820;2023-02-28T11:17:31;8.93;;;5.65;;
48042;SDS011;33988;47.992;8.820;2023-02-28T11:20:04;9.23;;;5.97;;
48042;SDS011;33988;47.992;8.820;2023-02-28T11:22:35;9.05;;;5.57;;
48042;SDS011;33988;47.992;8.820;2023-02-28T11:25:09;9.68;;;6.40;;
48042;SDS011;33988;47.992;8.820;2023-02-28T11:27:52;7.32;;;5.63;;
48042;SDS011;33988;47.992;8.820;2023-02-28T11:33:10;8.30;;;5.65;;
48042;SDS011;33988;47.992;8.820;2023-02-28T11:35:49;9.77;;;5.40;;
48042;SDS011;33988;47.992;8.820;2023-02-28T11:38:19;8.23;;;5.50;;
48042;SDS011;33988;47.992;8.820;2023-02-28T11:43:29;9.23;;;6.28;;
48042;SDS011;33988;47.992;8.820;2023-02-28T11:46:06;10.32;;;5.97;;
48042;SDS011;33988;47.992;8.820;2023-02-28T11:51:41;9.32;;;6.40;;
48042;SDS011;33988;47.992;8.820;2023-02-28T11:57:20;6.80;;;5.50;;
48042;SDS011;33988;47.992;8.820;2023-02-28T12:20:35;10.45;;;6.18;;
48042;SDS011;33988;47.992;8.820;2023-02-28T12:28:43;9.88;;;6.40;;
48042;SDS011;33988;47.992;8.820;2023-02-28T12:31:24;11.73;;;6.93;;
48042;SDS011;33988;47.992;8.820;2023-02-28T12:33:59;10.55;;;6.32;;
48042;SDS011;33988;47.992;8.820;2023-02-28T12:36:32;8.75;;;6.70;;
48042;SDS011;33988;47.992;8.820;2023-02-28T12:39:07;12.57;;;6.93;;
48042;SDS011;33988;47.992;8.820;2023-02-28T12:42:24;8.02;;;5.65;;
48042;SDS011;33988;47.992;8.820;2023-02-28T12:45:24;10.63;;;6.65;;
48042;SDS011;33988;47.992;8.820;2023-02-28T12:48:08;7.55;;;6.05;;
48042;SDS011;33988;47.992;8.820;2023-02-28T12:50:41;9.20;;;6.30;;
48042;SDS011;33988;47.992;8.820;2023-02-28T12:53:18;10.10;;;6.50;;
48042;SDS011;33988;47.992;8.820;2023-02-28T12:56:14;10.95;;;6.25;;
48042;SDS011;33988;47.992;8.820;2023-02-28T12:59:15;10.45;;;6.88;;
48042;SDS011;33988;47.992;8.820;2023-02-28T13:05:43;10.75;;;6.18;;
48042;SDS011;33988;47.992;8.820;2023-02-28T13:11:25;9.55;;;6.25;;
48042;SDS011;33988;47.992;8.820;2023-02-28T13:14:06;8.77;;;6.25;;
48042;SDS011;33988;47.992;8.820;2023-02-28T13:19:43;8.38;;;6.60;;
48042;SDS011;33988;47.992;8.820;2023-02-28T13:24:52;10.20;;;6.65;;
48042;SDS011;33988;47.992;8.820;2023-02-28T13:27:31;8.20;;;6.50;;
48042;SDS011;33988;47.992;8.820;2023-02-28T13:47:23;8.38;;;6.57;;
48042;SDS011;33988;47.992;8.820;2023-02-28T13:49:30;8.65;;;5.85;;
48042;SDS011;33988;47.992;8.820;2023-02-28T13:54:39;8.85;;;6.25;;
48042;SDS011;33988;47.992;8.820;2023-02-28T14:08:46;8.82;;;6.53;;
48042;SDS011;33988;47.992;8.820;2023-02-28T14:11:43;11.75;;;6.82;;
48042;SDS011;33988;47.992;8.820;2023-02-28T14:14:56;8.38;;;6.75;;
48042;SDS011;33988;47.992;8.820;2023-02-28T14:17:04;9.13;;;6.45;;
48042;SDS011;33988;47.992;8.820;2023-02-28T14:19:36;9.73;;;6.85;;
48042;SDS011;33988;47.992;8.820;2023-02-28T14:25:09;9.52;;;6.93;;
48042;SDS011;33988;47.992;8.820;2023-02-28T14:30:36;8.70;;;7.00;;
48042;SDS011;33988;47.992;8.820;2023-02-28T14:33:37;8.73;;;6.50;;
48042;SDS011;33988;47.992;8.820;2023-02-28T14:36:23;9.98;;;6.72;;
48042;SDS011;33988;47.992;8.820;2023-02-28T14:38:58;10.90;;;6.63;;
48042;SDS011;33988;47.992;8.820;2023-02-28T14:41:36;10.60;;;7.60;;
48042;SDS011;33988;47.992;8.820;2023-02-28T14:46:51;9.73;;;7.05;;
48042;SDS011;33988;47.992;8.820;2023-02-28T14:49:36;11.30;;;7.22;;
48042;SDS011;33988;47.992;8.820;2023-02-28T14:54:36;11.60;;;8.23;;
48042;SDS011;33988;47.992;8.820;2023-02-28T14:57:18;8.65;;;6.88;;
48042;SDS011;33988;47.992;8.820;2023-02-28T15:02:37;11.73;;;7.78;;
48042;SDS011;33988;47.992;8.820;2023-02-28T15:07:44;11.10;;;7.55;;
48042;SDS011;33988;47.992;8.820;2023-02-28T15:12:54;11.10;;;7.20;;
48042;SDS011;33988;47.992;8.820;2023-02-28T15:15:33;11.60;;;7.97;;
48042;SDS011;33988;47.992;8.820;2023-02-28T15:24:00;9.00;;;6.72;;
48042;SDS011;33988;47.992;8.820;2023-02-28T15:26:53;11.35;;;7.38;;
48042;SDS011;33988;47.992;8.820;2023-02-28T15:29:26;10.60;;;7.88;;
48042;SDS011;33988;47.992;8.820;2023-02-28T15:31:56;9.15;;;7.38;;
48042;SDS011;33988;47.992;8.820;2023-02-28T15:34:36;10.35;;;7.65;;
48042;SDS011;33988;47.992;8.820;2023-02-28T15:46:08;10.95;;;7.95;;
48042;SDS011;33988;47.992;8.820;2023-02-28T15:48:58;9.57;;;7.32;;
48042;SDS011;33988;47.992;8.820;2023-02-28T15:51:30;9.30;;;6.95;;
48042;SDS011;33988;47.992;8.820;2023-02-28T15:54:07;8.77;;;6.97;;
48042;SDS011;33988;47.992;8.820;2023-02-28T15:56:45;9.40;;;7.07;;
48042;SDS011;33988;47.992;8.820;2023-02-28T15:59:17;9.02;;;7.25;;
48042;SDS011;33988;47.992;8.820;2023-02-28T16:02:01;9.77;;;7.53;;
48042;SDS011;33988;47.992;8.820;2023-02-28T16:05:45;9.88;;;7.30;;
48042;SDS011;33988;47.992;8.820;2023-02-28T16:08:15;8.70;;;7.13;;
48042;SDS011;33988;47.992;8.820;2023-02-28T16:10:42;10.10;;;7.50;;
48042;SDS011;33988;47.992;8.820;2023-02-28T16:13:11;11.80;;;7.80;;
48042;SDS011;33988;47.992;8.820;2023-02-28T16:15:43;11.00;;;8.60;;
48042;SDS011;33988;47.992;8.820;2023-02-28T16:18:15;11.77;;;7.53;;
48042;SDS011;33988;47.992;8.820;2023-02-28T16:20:44;9.65;;;7.90;;
48042;SDS011;33988;47.992;8.820;2023-02-28T16:23:11;14.18;;;8.40;;
48042;SDS011;33988;47.992;8.820;2023-02-28T16:25:40;13.30;;;7.80;;
48042;SDS011;33988;47.992;8.820;2023-02-28T16:28:15;11.55;;;7.70;;
48042;SDS011;33988;47.992;8.820;2023-02-28T16:30:47;9.32;;;7.82;;
48042;SDS011;33988;47.992;8.820;2023-02-28T16:33:17;12.45;;;8.30;;
48042;SDS011;33988;47.992;8.820;2023-02-28T16:35:44;13.45;;;8.23;;
48042;SDS011;33988;47.992;8.820;2023-02-28T16:38:14;10.32;;;7.95;;
48042;SDS011;33988;47.992;8.820;2023-02-28T16:40:41;10.65;;;7.80;;
48042;SDS011;33988;47.992;8.820;2023-02-28T16:43:15;12.40;;;8.02;;
48042;SDS011;33988;47.992;8.820;2023-02-28T16:45:45;11.32;;;8.40;;
48042;SDS011;33988;47.992;8.820;2023-02-28T16:48:13;11.60;;;8.30;;
48042;SDS011;33988;47.992;8.820;2023-02-28T16:50:42;11.60;;;7.93;;
48042;SDS011;33988;47.992;8.820;2023-02-28T16:53:12;10.77;;;7.90;;
48042;SDS011;33988;47.992;8.820;2023-02-28T16:55:39;10.80;;;7.95;;
48042;SDS011;33988;47.992;8.820;2023-02-28T16:58:10;10.77;;;8.27;;
48042;SDS011;33988;47.992;8.820;2023-02-28T17:00:41;9.80;;;7.82;;
48042;SDS011;33988;47.992;8.820;2023-02-28T17:03:19;11.88;;;8.32;;
48042;SDS011;33988;47.992;8.820;2023-02-28T17:06:01;14.27;;;8.27;;
48042;SDS011;33988;47.992;8.820;2023-02-28T17:08:30;12.38;;;7.88;;
48042;SDS011;33988;47.992;8.820;2023-02-28T17:10:58;9.65;;;7.47;;
48042;SDS011;33988;47.992;8.820;2023-02-28T17:13:28;11.40;;;7.63;;
48042;SDS011;33988;47.992;8.820;2023-02-28T17:15:55;9.98;;;7.32;;
48042;SDS011;33988;47.992;8.820;2023-02-28T17:18:22;11.30;;;7.53;;
48042;SDS011;33988;47.992;8.820;2023-02-28T17:20:54;9.65;;;7.55;;
48042;SDS011;33988;47.992;8.820;2023-02-28T17:23:21;11.40;;;8.25;;
48042;SDS011;33988;47.992;8.820;2023-02-28T17:25:48;11.65;;;8.05;;
48042;SDS011;33988;47.992;8.820;2023-02-28T17:28:23;10.52;;;7.72;;
48042;SDS011;33988;47.992;8.820;2023-02-28T17:30:50;12.35;;;8.02;;
48042;SDS011;33988;47.992;8.820;2023-02-28T17:33:17;11.57;;;7.70;;
48042;SDS011;33988;47.992;8.820;2023-02-28T17:35:47;10.75;;;7.72;;
48042;SDS011;33988;47.992;8.820;2023-02-28T17:38:18;12.20;;;8.65;;
48042;SDS011;33988;47.992;8.820;2023-02-28T17:40:51;12.32;;;8.52;;
48042;SDS011;33988;47.992;8.820;2023-02-28T17:43:26;12.25;;;8.57;;
48042;SDS011;33988;47.992;8.820;2023-02-28T17:45:56;11.50;;;8.65;;
48042;SDS011;33988;47.992;8.820;2023-02-28T17:48:24;12.40;;;8.32;;
48042;SDS011;33988;47.992;8.820;2023-02-28T17:50:51;10.02;;;8.07;;
48042;SDS011;33988;47.992;8.820;2023-02-28T17:53:21;11.40;;;8.25;;
48042;SDS011;33988;47.992;8.820;2023-02-28T17:55:49;13.55;;;9.20;;
48042;SDS011;33988;47.992;8.820;2023-02-28T17:58:16;10.25;;;7.95;;
48042;SDS011;33988;47.992;8.820;2023-02-28T18:00:44;13.02;;;8.73;;
48042;SDS011;33988;47.992;8.820;2023-02-28T18:03:19;12.88;;;8.18;;
48042;SDS011;33988;47.992;8.820;2023-02-28T18:05:50;10.95;;;7.50;;
48042;SDS011;33988;47.992;8.820;2023-02-28T18:08:19;11.20;;;7.75;;
48042;SDS011;33988;47.992;8.820;2023-02-28T18:10:46;12.57;;;8.13;;
48042;SDS011;33988;47.992;8.820;2023-02-28T18:13:13;11.80;;;7.85;;
48042;SDS011;33988;47.992;8.820;2023-02-28T18:15:40;9.85;;;7.10;;
48042;SDS011;33988;47.992;8.820;2023-02-28T18:18:07;9.55;;;7.40;;
48042;SDS011;33988;47.992;8.820;2023-02-28T18:20:34;11.55;;;7.30;;
48042;SDS011;33988;47.992;8.820;2023-02-28T18:23:02;10.70;;;7.72;;
48042;SDS011;33988;47.992;8.820;2023-02-28T18:25:29;10.98;;;7.50;;